Карточка аэропорта UAKK

Внимание!
Информация на этой странице в стадии наполнения.
Если вы не увидели какой-то информации, или заметили неточность - пожалуйста сообщите нам!
Спасибо!
Команда RU-STAFF
Название аэропортаКараганда
Название аэропорта (англ.)Karaganda
Превышение1768 ft. (538.9 m.)
Координаты49°40.302', 73°20.118'
Высота перехода10000
Эшелон переходаby ATC
Коды ответчика0630-0637, 7220-7227
Зона ОрВДАстана РПИ (UACN)
Данные METARUAKK 131430Z 22003MPS CAVOK 06/01 Q1010 NOSIG RMK QFE711/0948
Проноз погоды (TAF)UAKK 131101Z 1312/1412 21005MPS 9999 SCT040 BKN100 TX13/1410Z TN03/1401Z TEMPO 1312/1315 23008MPS TEMPO 1315/1320 VRB02MPS BECMG 1400/1402 23008MPS SCT030 BKN080 TEMPO 1402/1412 23011MPS 5000 -SHRA BKN011 BKN030CB
NOTAMshow/hide NOTAM
AWOS   TABLE

Информация о ВПП

ВПП Длина ВПП (м.) Покрытие Курс ВПП Частота ILS
053601Железобетон50109.9
233601Железобетон230111.7

Диспетчерские позиции




Спутниковое изображение